Time;durP1;ratioP1;P1;durP2;ratioP2;P2;SDS_P1;SDS_P2;PMS_P1;PMS_P2;Temp;Humidity;BMP_temperature;BMP_pressure;BME280_temperature;BME280_humidity;BME280_pressure;Samples;Min_cycle;Max_cycle;Signal;HPM_P1;HPM_P2
2023/09/15 00:00:17;;;;;;;;;;;;;;;14.40;83.21;100802.77;133955;1301;22460;-79
2023/09/15 00:03:17;;;;;;;6.50;5.80;;;;;;;14.41;83.25;100805.69;133903;1299;22482;-77
2023/09/15 00:06:18;;;;;;;9.40;5.60;;;;;;;14.40;83.10;100804.48;133973;1299;22406;-77
2023/09/15 00:09:20;;;;;;;6.20;5.50;;;;;;;14.41;83.25;100810.63;133960;1299;23167;-77
2023/09/15 00:12:20;;;;;;;6.90;5.80;;;;;;;14.41;83.38;100812.08;134001;1299;23176;-78
2023/09/15 00:15:21;;;;;;;6.80;5.80;;;;;;;14.40;83.39;100809.94;133917;1299;22519;-77
2023/09/15 00:18:22;;;;;;;6.60;5.70;;;;;;;14.38;83.46;100810.60;133942;1299;22412;-76
2023/09/15 00:21:22;;;;;;;;;;;;;;;14.38;83.55;100810.27;133961;1299;22533;-77
2023/09/15 00:24:23;;;;;;;11.80;5.60;;;;;;;14.37;83.68;100810.56;133970;1299;22362;-77
2023/09/15 00:27:23;;;;;;;;;;;;;;;14.32;83.54;100818.42;134003;1299;22456;-77
2023/09/15 00:30:25;;;;;;;10.20;6.30;;;;;;;14.23;83.77;100815.29;133941;1299;23013;-77
2023/09/15 00:33:26;;;;;;;8.50;6.60;;;;;;;14.20;83.83;100821.38;133959;1300;22945;-77
2023/09/15 00:36:26;;;;;;;10.90;6.90;;;;;;;14.16;83.80;100824.98;133789;1299;22461;-77
2023/09/15 00:39:27;;;;;;;9.50;6.90;;;;;;;14.19;84.11;100823.95;133966;1301;22480;-77
2023/09/15 00:42:27;;;;;;;10.20;7.10;;;;;;;14.23;84.04;100825.87;133979;1299;22235;-77
2023/09/15 00:45:29;;;;;;;9.70;7.40;;;;;;;14.24;83.98;100824.49;133978;1302;22442;-77
2023/09/15 00:48:29;;;;;;;;;;;;;;;14.27;84.11;100825.58;133989;1299;22462;-77
2023/09/15 00:51:30;;;;;;;8.80;5.80;;;;;;;14.29;84.11;100829.64;133954;1300;22405;-77
2023/09/15 00:54:32;;;;;;;9.70;6.90;;;;;;;14.32;84.23;100830.46;133971;1299;22291;-78
2023/09/15 00:57:33;;;;;;;8.60;5.90;;;;;;;14.35;84.10;100833.02;133982;1299;23823;-77
2023/09/15 01:00:35;;;;;;;11.90;6.50;;;;;;;14.35;84.04;100830.27;133942;1299;22417;-77
2023/09/15 01:03:42;;;;;;;9.80;7.00;;;;;;;14.35;83.94;100829.94;133975;1301;22442;-77
2023/09/15 01:06:43;;;;;;;9.30;6.60;;;;;;;14.36;84.16;100832.14;133972;1299;22456;-77
2023/09/15 01:09:43;;;;;;;8.20;6.40;;;;;;;14.39;84.31;100837.04;133695;1301;22427;-78
2023/09/15 01:12:48;;;;;;;;;;;;;;;14.42;84.36;100836.23;133854;1300;22502;-77
2023/09/15 01:15:56;;;;;;;7.10;5.60;;;;;;;14.42;84.26;100838.42;133827;1301;23210;-77
2023/09/15 01:19:20;;;;;;;7.20;6.10;;;;;;;14.42;84.25;100838.43;133842;1301;22357;-77
2023/09/15 01:22:58;;;;;;;11.50;6.50;;;;;;;14.40;84.21;100840.52;133782;1301;22396;-77
2023/09/15 01:26:26;;;;;;;10.90;6.30;;;;;;;14.39;84.20;100839.67;133809;1300;22458;-77
2023/09/15 01:29:33;;;;;;;10.00;6.10;;;;;;;14.39;84.12;100836.48;133849;1302;22358;-77
2023/09/15 01:32:34;;;;;;;11.70;6.70;;;;;;;14.36;84.18;100836.30;133759;1301;23272;-77
2023/09/15 01:35:35;;;;;;;9.90;5.90;;;;;;;14.37;84.30;100838.23;133851;1301;22456;-77
2023/09/15 01:38:35;;;;;;;8.60;5.60;;;;;;;14.35;84.34;100841.03;133716;1301;22238;-77
2023/09/15 01:41:36;;;;;;;7.30;5.80;;;;;;;14.33;84.15;100842.67;133793;1301;22397;-77
2023/09/15 01:44:37;;;;;;;9.80;6.20;;;;;;;14.34;84.43;100845.57;133781;1301;22474;-78
2023/09/15 01:47:39;;;;;;;6.00;5.40;;;;;;;14.33;84.43;100841.91;133812;1300;22432;-77
2023/09/15 01:50:47;;;;;;;8.80;6.00;;;;;;;14.32;84.39;100836.17;133798;1301;22368;-77
2023/09/15 01:53:52;;;;;;;9.80;5.60;;;;;;;14.30;84.50;100833.21;133781;1301;22371;-79
2023/09/15 01:56:53;;;;;;;8.50;5.70;;;;;;;14.31;84.59;100832.94;133802;1300;22358;-77
2023/09/15 01:59:53;;;;;;;;;;;;;;;14.32;84.60;100831.89;133717;1300;23331;-77
2023/09/15 02:02:54;;;;;;;10.00;6.20;;;;;;;14.33;84.55;100836.27;133817;1301;22507;-77
2023/09/15 02:06:00;;;;;;;7.50;5.50;;;;;;;14.33;84.60;100838.54;133828;1300;22525;-77
2023/09/15 02:09:04;;;;;;;6.50;5.40;;;;;;;14.30;84.55;100837.08;133806;1301;22502;-77
2023/09/15 02:12:05;;;;;;;7.90;5.60;;;;;;;14.32;84.72;100841.84;133710;1301;22575;-77
2023/09/15 02:15:09;;;;;;;8.10;5.70;;;;;;;14.33;84.74;100840.39;133696;1301;22226;-77
2023/09/15 02:18:10;;;;;;;9.70;5.60;;;;;;;14.33;84.81;100839.24;133812;1301;22445;-77
2023/09/15 02:21:10;;;;;;;8.40;5.20;;;;;;;14.34;84.98;100839.70;133790;1301;22393;-77
2023/09/15 02:24:11;;;;;;;12.40;6.10;;;;;;;14.35;85.07;100839.63;133803;1295;23001;-77
2023/09/15 02:27:11;;;;;;;6.80;4.70;;;;;;;14.36;85.05;100838.96;133818;1301;22614;-79
2023/09/15 02:30:12;;;;;;;;;;;;;;;14.36;85.07;100839.13;133692;1301;23383;-77
2023/09/15 02:33:13;;;;;;;6.20;5.20;;;;;;;14.38;85.29;100839.89;133684;1301;23310;-77
2023/09/15 02:36:13;;;;;;;7.40;5.10;;;;;;;14.37;85.22;100837.85;133799;1301;22273;-77
2023/09/15 02:39:14;;;;;;;9.20;6.20;;;;;;;14.35;85.24;100844.23;133794;1300;23371;-77
2023/09/15 02:42:18;;;;;;;7.30;5.80;;;;;;;14.36;85.36;100842.73;133850;1304;22359;-77
2023/09/15 02:45:19;;;;;;;7.50;5.70;;;;;;;14.37;85.30;100843.87;133794;1300;23110;-77
2023/09/15 02:48:19;;;;;;;10.50;5.80;;;;;;;14.36;85.29;100843.04;133830;1301;22481;-77
2023/09/15 02:51:20;;;;;;;9.90;7.20;;;;;;;14.35;85.42;100846.02;133818;1301;22888;-77
2023/09/15 02:54:20;;;;;;;;;;;;;;;14.34;85.43;100850.55;133693;1301;23818;-77
2023/09/15 02:57:21;;;;;;;6.60;5.60;;;;;;;14.30;85.57;100848.86;133681;1301;22898;-77
2023/09/15 03:00:24;;;;;;;8.90;6.00;;;;;;;14.28;85.57;100852.71;133667;1301;22426;-77
2023/09/15 03:03:25;;;;;;;8.60;6.10;;;;;;;14.27;85.74;100851.73;133671;1301;23340;-77
2023/09/15 03:06:27;;;;;;;7.10;5.80;;;;;;;14.27;85.88;100857.45;133734;1301;23095;-77
2023/09/15 03:09:31;;;;;;;10.40;6.50;;;;;;;14.27;85.92;100853.98;133864;1299;22372;-77
2023/09/15 03:12:32;;;;;;;8.20;6.30;;;;;;;14.28;86.04;100854.58;133779;1301;22368;-78
2023/09/15 03:15:33;;;;;;;8.40;5.90;;;;;;;14.27;86.07;100852.90;133948;1301;22200;-77
2023/09/15 03:18:34;;;;;;;6.90;5.90;;;;;;;14.28;86.14;100855.95;133774;1291;22477;-78
2023/09/15 03:21:34;;;;;;;;;;;;;;;14.27;86.16;100858.27;133853;1299;194991;-77
2023/09/15 03:24:36;;;;;;;7.30;6.10;;;;;;;14.27;86.36;100856.70;133764;1299;23629;-78
2023/09/15 03:27:37;;;;;;;8.10;5.60;;;;;;;14.27;86.37;100860.25;133857;1289;22475;-77
2023/09/15 03:30:38;;;;;;;8.90;5.90;;;;;;;14.28;86.30;100859.98;133960;1299;22211;-77
2023/09/15 03:33:38;;;;;;;;;;;;;;;14.27;86.32;100856.84;133966;1302;22439;-77
2023/09/15 03:36:39;;;;;;;7.70;5.30;;;;;;;14.28;86.42;100860.65;133994;1298;22454;-77
2023/09/15 03:39:39;;;;;;;7.40;5.90;;;;;;;14.29;86.36;100862.39;133973;1299;23117;-77
2023/09/15 03:42:40;;;;;;;;;;;;;;;14.28;86.38;100864.95;133745;1302;22446;-77
2023/09/15 03:45:44;;;;;;;8.20;5.30;;;;;;;14.26;86.55;100872.95;133820;1299;23062;-78
2023/09/15 03:48:45;;;;;;;6.80;5.30;;;;;;;14.27;86.50;100868.48;133741;1301;22214;-78
2023/09/15 03:51:46;;;;;;;5.40;4.90;;;;;;;14.27;86.53;100869.31;133990;1301;22497;-77
2023/09/15 03:54:47;;;;;;;7.40;5.60;;;;;;;14.28;86.63;100870.42;133965;1301;22468;-78
2023/09/15 03:57:50;;;;;;;8.80;5.90;;;;;;;14.28;86.55;100869.09;133931;1299;22483;-78
2023/09/15 04:00:51;;;;;;;11.90;5.70;;;;;;;14.28;86.67;100872.59;133932;1299;22379;-78
2023/09/15 04:03:51;;;;;;;;;;;;;;;14.29;86.68;100870.48;133957;1299;22558;-77
2023/09/15 04:06:53;;;;;;;6.50;5.60;;;;;;;14.30;86.66;100873.79;133897;1299;22371;-77
2023/09/15 04:09:54;;;;;;;9.70;5.70;;;;;;;14.29;86.81;100876.35;133944;1299;22422;-78
2023/09/15 04:12:54;;;;;;;9.10;5.70;;;;;;;14.29;86.93;100876.23;133959;1300;22437;-77
2023/09/15 04:15:56;;;;;;;12.10;5.90;;;;;;;14.29;86.91;100882.63;133971;1292;23199;-77
2023/09/15 04:18:57;;;;;;;9.60;5.10;;;;;;;14.29;86.93;100881.73;133965;1299;22185;-77
2023/09/15 04:21:59;;;;;;;8.50;5.40;;;;;;;14.28;87.04;100880.58;133959;1300;22516;-77
2023/09/15 04:25:00;;;;;;;12.70;5.40;;;;;;;14.29;87.11;100881.77;133972;1300;22465;-77
2023/09/15 04:28:00;;;;;;;9.30;5.50;;;;;;;14.29;86.96;100882.13;133907;1299;22416;-77
2023/09/15 04:31:04;;;;;;;8.60;5.70;;;;;;;14.28;86.93;100876.00;133729;1299;22418;-78
2023/09/15 04:34:05;;;;;;;6.80;6.10;;;;;;;14.27;87.00;100878.03;133711;1300;22375;-76
2023/09/15 04:37:06;;;;;;;7.70;5.20;;;;;;;14.29;87.18;100878.39;133908;1299;22508;-77
2023/09/15 04:40:07;;;;;;;;;;;;;;;14.29;87.06;100877.08;133795;1301;22929;-77
2023/09/15 04:43:08;;;;;;;6.50;5.40;;;;;;;14.28;87.07;100882.27;133748;1299;22425;-77
2023/09/15 04:46:09;;;;;;;6.80;5.50;;;;;;;14.27;87.09;100888.50;133780;1301;22284;-76
2023/09/15 04:49:09;;;;;;;;;;;;;;;14.28;87.04;100891.67;133788;1299;22443;-76
2023/09/15 04:52:10;;;;;;;9.80;6.10;;;;;;;14.29;87.18;100890.08;133719;1299;22355;-79
2023/09/15 04:55:11;;;;;;;6.40;5.50;;;;;;;14.30;87.12;100890.00;133926;1299;22245;-78
2023/09/15 04:58:11;;;;;;;;;;;;;;;14.30;87.17;100892.87;133938;1301;22440;-76
2023/09/15 05:01:16;;;;;;;9.30;5.00;;;;;;;14.32;87.29;100894.92;133766;1301;22335;-77
2023/09/15 05:04:20;;;;;;;6.90;5.30;;;;;;;14.36;87.30;100900.73;133974;1306;22401;-76
2023/09/15 05:07:21;;;;;;;9.20;5.50;;;;;;;14.39;87.36;100900.61;133761;1301;22389;-80
2023/09/15 05:10:24;;;;;;;7.90;5.40;;;;;;;14.44;87.47;100900.60;133715;1301;22402;-76
2023/09/15 05:13:25;;;;;;;6.80;5.30;;;;;;;14.49;87.62;100895.41;133498;1304;22352;-77
2023/09/15 05:16:26;;;;;;;6.30;4.60;;;;;;;14.54;87.81;100894.48;133556;1302;22355;-80
2023/09/15 05:19:27;;;;;;;7.90;5.80;;;;;;;14.61;87.86;100895.75;133585;1304;23387;-81
2023/09/15 05:22:27;;;;;;;;;;;;;;;14.69;87.80;100893.84;133757;1308;23596;-78
2023/09/15 05:25:28;;;;;;;6.90;6.10;;;;;;;14.76;87.70;100896.20;133536;1302;22346;-79
2023/09/15 05:28:30;;;;;;;7.40;5.90;;;;;;;14.84;87.72;100896.23;133659;1294;22471;-77
2023/09/15 05:31:31;;;;;;;8.70;5.70;;;;;;;14.92;87.57;100898.90;133619;1301;22419;-78
2023/09/15 05:34:31;;;;;;;;;;;;;;;14.99;87.39;100901.06;133552;1301;22620;-77
2023/09/15 05:37:32;;;;;;;10.60;6.10;;;;;;;15.07;87.43;100902.15;133558;1301;22390;-76
2023/09/15 05:40:32;;;;;;;;;;;;;;;15.14;87.32;100901.26;133560;1300;22460;-78
2023/09/15 05:43:33;;;;;;;9.10;5.80;;;;;;;15.19;87.18;100901.55;133597;1304;23191;-80
2023/09/15 05:46:36;;;;;;;11.40;6.10;;;;;;;15.28;87.08;100902.00;133736;1301;23608;-77
2023/09/15 05:49:37;;;;;;;8.90;6.50;;;;;;;15.35;87.07;100905.66;133778;1301;22433;-79
2023/09/15 05:52:37;;;;;;;8.30;5.80;;;;;;;15.43;87.00;100907.27;133765;1300;22493;-78
2023/09/15 05:55:38;;;;;;;8.90;5.90;;;;;;;15.46;86.84;100909.02;133710;1300;23123;-77
2023/09/15 05:58:38;;;;;;;12.70;6.80;;;;;;;15.54;86.90;100909.52;133737;1301;22336;-79
2023/09/15 06:01:46;;;;;;;;;;;;;;;15.63;86.81;100913.25;133783;1301;22461;-77
2023/09/15 06:04:48;;;;;;;9.00;6.30;;;;;;;15.70;86.77;100917.46;133750;1301;22416;-77
2023/09/15 06:07:49;;;;;;;12.80;6.50;;;;;;;15.79;86.83;100918.52;133801;1302;22306;-77
2023/09/15 06:10:50;;;;;;;8.40;5.90;;;;;;;15.86;86.68;100918.95;133610;1301;22253;-77
2023/09/15 06:13:55;;;;;;;9.40;5.90;;;;;;;15.94;86.58;100921.56;133603;1301;22459;-75
2023/09/15 06:16:57;;;;;;;12.70;5.80;;;;;;;16.01;86.52;100925.38;133646;1292;22480;-80
2023/09/15 06:19:57;;;;;;;9.50;5.70;;;;;;;16.07;86.37;100923.86;133675;1302;22220;-80
2023/09/15 06:23:12;;;;;;;9.30;5.00;;;;;;;16.16;86.06;100925.19;133642;1301;22491;-80
2023/09/15 06:26:33;;;;;;;7.40;5.50;;;;;;;16.24;85.86;100925.00;133414;1301;23052;-80
2023/09/15 06:29:36;;;;;;;9.20;5.20;;;;;;;16.30;85.63;100926.74;133586;1302;23511;-79
2023/09/15 06:32:48;;;;;;;8.30;5.30;;;;;;;16.34;85.40;100928.83;133642;1301;22261;-79
2023/09/15 06:35:48;;;;;;;5.60;4.70;;;;;;;16.45;85.54;100927.81;133587;1302;23163;-77
2023/09/15 06:38:50;;;;;;;8.20;5.30;;;;;;;16.58;85.49;100931.23;133636;1301;22255;-77
2023/09/15 06:41:50;;;;;;;9.60;5.30;;;;;;;16.70;85.15;100932.46;133546;1302;22509;-77
2023/09/15 06:44:56;;;;;;;10.30;5.00;;;;;;;16.83;84.96;100927.50;133636;1301;22838;-77
2023/09/15 06:47:56;;;;;;;;;;;;;;;16.95;84.85;100930.79;133381;1301;23227;-77
2023/09/15 06:50:57;;;;;;;7.50;5.10;;;;;;;17.09;84.68;100930.30;133630;1297;22263;-77
2023/09/15 06:53:58;;;;;;;8.20;4.80;;;;;;;17.18;84.22;100934.95;133629;1300;22365;-77
2023/09/15 06:56:59;;;;;;;8.60;5.00;;;;;;;17.20;84.06;100934.56;133671;1301;23037;-77
2023/09/15 06:59:59;;;;;;;;;;;;;;;17.24;83.89;100934.73;133650;1301;22445;-77
2023/09/15 07:03:00;;;;;;;9.10;4.50;;;;;;;17.33;83.88;100937.66;133593;1301;22231;-77
2023/09/15 07:06:03;;;;;;;7.60;4.60;;;;;;;17.49;83.57;100934.17;133638;1301;22482;-77
2023/09/15 07:09:04;;;;;;;;;;;;;;;17.65;82.46;100937.33;133721;1299;22477;-78
2023/09/15 07:12:14;;;;;;;8.30;4.30;;;;;;;17.80;81.97;100934.52;133737;1302;22436;-77
2023/09/15 07:15:15;;;;;;;10.00;3.70;;;;;;;18.13;82.41;100931.41;133923;1301;22490;-77
2023/09/15 07:18:19;;;;;;;7.20;3.80;;;;;;;18.47;81.31;100932.23;133932;1302;22454;-77
2023/09/15 07:21:19;;;;;;;6.70;4.10;;;;;;;18.52;80.02;100936.07;133930;1305;22430;-77
2023/09/15 07:24:20;;;;;;;7.00;4.00;;;;;;;18.43;79.19;100937.22;133925;1300;22451;-77
2023/09/15 07:27:20;;;;;;;;;;;;;;;18.34;78.92;100936.96;133953;1301;22466;-78
2023/09/15 07:30:24;;;;;;;8.40;3.90;;;;;;;18.33;79.14;100938.36;133968;1301;22495;-77
2023/09/15 07:33:27;;;;;;;5.50;3.60;;;;;;;18.38;78.71;100939.34;133916;1301;22747;-77
2023/09/15 07:36:31;;;;;;;6.40;3.70;;;;;;;18.65;78.37;100941.14;133935;1299;23082;-77
2023/09/15 07:39:37;;;;;;;4.70;3.70;;;;;;;18.91;78.15;100944.83;133945;1301;22338;-78
2023/09/15 07:42:38;;;;;;;6.80;3.80;;;;;;;19.22;77.76;100944.09;133895;1299;22549;-78
2023/09/15 07:45:39;;;;;;;10.60;3.50;;;;;;;19.43;76.86;100951.50;133881;1299;23320;-78
2023/09/15 07:48:42;;;;;;;5.90;3.80;;;;;;;19.50;75.51;100951.50;133966;1299;22309;-77
2023/09/15 07:51:43;;;;;;;5.20;3.40;;;;;;;19.44;75.04;100948.52;133934;1301;24991;-77
2023/09/15 07:54:46;;;;;;;8.50;3.30;;;;;;;19.62;75.14;100947.80;133938;1302;22353;-77
2023/09/15 07:57:47;;;;;;;3.70;3.00;;;;;;;19.86;74.61;100949.89;133934;1299;22559;-78
2023/09/15 08:00:47;;;;;;;5.20;3.30;;;;;;;20.08;73.79;100947.80;133881;1298;22422;-77
2023/09/15 08:03:48;;;;;;;5.30;3.30;;;;;;;20.32;72.61;100949.05;133965;1299;22355;-78
2023/09/15 08:06:52;;;;;;;6.30;3.30;;;;;;;20.33;71.30;100951.59;133900;1299;23591;-76
2023/09/15 08:09:53;;;;;;;4.70;2.80;;;;;;;20.28;71.15;100955.90;133878;1299;22373;-76
2023/09/15 08:12:54;;;;;;;5.90;3.30;;;;;;;20.46;71.39;100953.09;133920;1301;22500;-78
2023/09/15 08:15:55;;;;;;;5.50;3.30;;;;;;;20.58;70.46;100952.33;133998;1304;22532;-77
2023/09/15 08:18:55;;;;;;;6.20;2.60;;;;;;;20.51;69.18;100945.66;133950;1299;23187;-80
2023/09/15 08:22:00;;;;;;;4.10;2.60;;;;;;;20.36;68.89;100947.48;133894;1299;22478;-77
2023/09/15 08:25:03;;;;;;;6.80;2.80;;;;;;;20.10;68.35;100951.20;133918;1299;22277;-78
2023/09/15 08:28:06;;;;;;;4.10;2.80;;;;;;;19.82;67.53;100954.98;133936;1301;22417;-77
2023/09/15 08:31:06;;;;;;;5.00;2.50;;;;;;;19.59;67.14;100954.50;133944;1299;22437;-79
2023/09/15 08:34:07;;;;;;;4.50;2.50;;;;;;;19.44;66.79;100955.96;133923;1299;22322;-77
2023/09/15 08:37:08;;;;;;;2.80;2.30;;;;;;;19.34;66.83;100956.51;133940;1299;22457;-77
2023/09/15 08:40:10;;;;;;;3.50;2.70;;;;;;;19.51;67.48;100956.89;133877;1300;22526;-76
2023/09/15 08:43:13;;;;;;;3.00;2.00;;;;;;;19.82;67.18;100955.19;133727;1299;22264;-76
2023/09/15 08:46:15;;;;;;;2.90;2.50;;;;;;;20.32;65.89;100953.90;133922;1299;22561;-76
2023/09/15 08:49:16;;;;;;;3.90;2.40;;;;;;;20.82;64.04;100957.79;133907;1299;23043;-77
2023/09/15 08:52:17;;;;;;;4.60;2.50;;;;;;;21.08;61.69;100953.11;133882;1302;24288;-76
2023/09/15 08:55:19;;;;;;;2.90;2.00;;;;;;;21.41;59.83;100952.56;133919;1299;24250;-76
2023/09/15 08:58:23;;;;;;;3.90;2.00;;;;;;;21.62;57.82;100953.05;133889;1301;22393;-77
2023/09/15 09:01:26;;;;;;;7.50;2.60;;;;;;;21.44;57.59;100952.46;133896;1299;22396;-78
2023/09/15 09:04:27;;;;;;;2.60;2.10;;;;;;;21.00;58.11;100951.58;133892;1299;22209;-76
2023/09/15 09:07:27;;;;;;;2.40;1.90;;;;;;;20.60;58.78;100951.61;133942;1299;22410;-77
2023/09/15 09:10:28;;;;;;;4.10;2.70;;;;;;;20.47;59.76;100948.81;133958;1302;22314;-79
2023/09/15 09:13:29;;;;;;;3.80;2.20;;;;;;;20.42;60.23;100945.95;133968;1301;22560;-77
2023/09/15 09:16:30;;;;;;;4.50;2.30;;;;;;;20.40;60.07;100942.35;133944;1299;22339;-77
2023/09/15 09:19:38;;;;;;;5.30;3.10;;;;;;;20.32;59.81;100946.73;133975;1302;22315;-78
2023/09/15 09:22:39;;;;;;;4.30;2.50;;;;;;;20.33;59.66;100947.76;133987;1299;22436;-77
2023/09/15 09:25:39;;;;;;;3.30;2.30;;;;;;;20.37;59.90;100943.33;133969;1300;22444;-78
2023/09/15 09:28:40;;;;;;;4.80;2.70;;;;;;;20.38;59.34;100944.06;133901;1299;22412;-78
2023/09/15 09:31:41;;;;;;;6.40;2.60;;;;;;;20.39;59.05;100944.86;133706;1301;22258;-79
2023/09/15 09:34:41;;;;;;;4.60;2.70;;;;;;;20.36;59.02;100947.23;133919;1301;23178;-77
2023/09/15 09:37:42;;;;;;;3.50;2.50;;;;;;;20.40;58.79;100949.58;133949;1300;23081;-77
2023/09/15 09:40:43;;;;;;;4.20;2.60;;;;;;;20.43;58.68;100948.62;133932;1302;23285;-77
2023/09/15 09:43:48;;;;;;;9.50;2.80;;;;;;;20.58;58.62;100942.29;133986;1300;23142;-77
2023/09/15 09:46:52;;;;;;;4.40;2.40;;;;;;;20.70;58.61;100938.61;133939;1301;23550;-77
2023/09/15 09:49:53;;;;;;;4.30;2.70;;;;;;;20.88;58.64;100936.23;133937;1299;22376;-78
2023/09/15 09:52:53;;;;;;;3.60;2.40;;;;;;;21.05;58.55;100930.17;133928;1301;22966;-79
2023/09/15 09:55:55;;;;;;;3.00;2.20;;;;;;;21.18;58.31;100928.52;133928;1299;22504;-77
2023/09/15 09:59:06;;;;;;;5.00;2.80;;;;;;;21.20;56.90;100935.77;133889;1299;22507;-78
2023/09/15 10:02:07;;;;;;;2.70;2.20;;;;;;;21.09;56.67;100930.90;133921;1300;23211;-77
2023/09/15 10:05:11;;;;;;;5.60;2.20;;;;;;;21.19;56.68;100929.88;133939;1299;22828;-77
2023/09/15 10:08:12;;;;;;;4.20;1.80;;;;;;;21.34;56.52;100924.90;133940;1301;22454;-78
2023/09/15 10:11:13;;;;;;;4.80;2.10;;;;;;;21.49;56.61;100923.41;133939;1302;22252;-77
2023/09/15 10:14:13;;;;;;;3.70;2.00;;;;;;;21.41;55.72;100921.89;133946;1305;22463;-78
2023/09/15 10:17:14;;;;;;;4.40;1.90;;;;;;;21.35;56.12;100920.98;133951;1299;23166;-78
2023/09/15 10:20:15;;;;;;;3.60;2.30;;;;;;;21.56;55.73;100919.85;133966;1301;22472;-77
2023/09/15 10:23:17;;;;;;;2.20;2.00;;;;;;;21.82;55.63;100917.78;133976;1296;22597;-77
2023/09/15 10:26:21;;;;;;;3.80;2.20;;;;;;;22.21;55.05;100912.72;133922;1299;22209;-77
2023/09/15 10:29:30;;;;;;;3.90;1.80;;;;;;;22.30;53.54;100913.54;133910;1299;22577;-77
2023/09/15 10:32:37;;;;;;;4.80;2.10;;;;;;;22.29;52.98;100908.98;133907;1289;22931;-78
2023/09/15 10:35:44;;;;;;;3.00;1.80;;;;;;;22.00;52.19;100908.50;133951;1299;22475;-78
2023/09/15 10:38:48;;;;;;;3.20;2.00;;;;;;;22.00;52.56;100903.64;133921;1291;22383;-77
2023/09/15 10:41:49;;;;;;;3.80;2.40;;;;;;;22.30;52.38;100895.45;133908;1296;23027;-78
2023/09/15 10:44:50;;;;;;;4.80;2.10;;;;;;;22.51;52.25;100894.08;133897;1300;22364;-79
2023/09/15 10:48:00;;;;;;;3.70;2.20;;;;;;;22.39;51.81;100896.73;133958;1300;22430;-77
2023/09/15 10:51:10;;;;;;;4.90;2.10;;;;;;;22.06;51.46;100892.86;133918;1299;22475;-78
2023/09/15 10:54:11;;;;;;;2.80;1.80;;;;;;;21.81;51.34;100892.85;133931;1299;23221;-78
2023/09/15 10:57:12;;;;;;;6.20;2.00;;;;;;;21.83;51.41;100897.18;133944;1302;22362;-78
2023/09/15 11:00:13;;;;;;;4.00;2.10;;;;;;;21.78;50.50;100895.98;133918;1299;22415;-78
2023/09/15 11:03:14;;;;;;;3.50;2.30;;;;;;;21.63;51.33;100896.01;133923;1299;23183;-78
2023/09/15 11:06:17;;;;;;;5.20;2.00;;;;;;;21.91;51.43;100900.45;133970;1299;22351;-77
2023/09/15 11:09:19;;;;;;;5.20;2.20;;;;;;;22.20;50.94;100901.89;133918;1301;22255;-77
2023/09/15 11:12:20;;;;;;;4.50;2.10;;;;;;;22.35;50.60;100901.17;133962;1301;22521;-78
2023/09/15 11:15:20;;;;;;;5.50;1.90;;;;;;;22.17;49.57;100897.19;133954;1302;22281;-78
2023/09/15 11:18:21;;;;;;;4.00;2.30;;;;;;;22.05;50.06;100892.11;133933;1301;22366;-77
2023/09/15 11:21:23;;;;;;;3.30;2.20;;;;;;;22.15;48.67;100885.23;133951;1299;22491;-78
2023/09/15 11:24:28;;;;;;;3.40;2.00;;;;;;;22.15;48.53;100884.94;133706;1299;22380;-78
2023/09/15 11:27:32;;;;;;;3.10;2.30;;;;;;;22.39;48.61;100882.45;133926;1301;22923;-77
2023/09/15 11:30:35;;;;;;;3.20;2.20;;;;;;;22.50;47.75;100886.61;133932;1301;23160;-78
2023/09/15 11:33:36;;;;;;;2.30;1.80;;;;;;;22.62;47.96;100885.75;133931;1301;22419;-79
2023/09/15 11:36:38;;;;;;;4.80;2.10;;;;;;;22.38;47.53;100882.59;133939;1301;23188;-77
2023/09/15 11:39:39;;;;;;;2.90;1.90;;;;;;;22.29;48.49;100882.33;133974;1301;22503;-78
2023/09/15 11:42:39;;;;;;;5.20;2.30;;;;;;;22.50;48.65;100878.06;133969;1302;22437;-77
2023/09/15 11:45:42;;;;;;;3.20;2.20;;;;;;;22.78;49.07;100878.52;133980;1299;23129;-77
2023/09/15 11:48:47;;;;;;;4.00;2.20;;;;;;;22.90;48.37;100874.23;133948;1299;23103;-77
2023/09/15 11:51:49;;;;;;;4.30;2.40;;;;;;;22.47;47.82;100870.97;133910;1300;22423;-79
2023/09/15 11:54:50;;;;;;;3.40;2.10;;;;;;;22.12;48.24;100868.60;133887;1299;22979;-81
2023/09/15 11:57:52;;;;;;;3.60;2.30;;;;;;;21.98;48.70;100865.16;133979;1299;22467;-77
2023/09/15 12:00:53;;;;;;;7.30;2.30;;;;;;;21.92;48.98;100861.40;133980;1291;22423;-79
2023/09/15 12:03:54;;;;;;;2.90;2.00;;;;;;;22.03;49.68;100859.58;133922;1299;22757;-77
2023/09/15 12:06:55;;;;;;;2.50;2.10;;;;;;;22.11;48.95;100862.07;133933;1299;22524;-78
2023/09/15 12:09:55;;;;;;;2.50;1.80;;;;;;;21.95;48.74;100864.04;133939;1302;22204;-79
2023/09/15 12:13:03;;;;;;;1.90;1.50;;;;;;;21.74;48.80;100859.67;133889;1299;22286;-77
2023/09/15 12:16:06;;;;;;;2.60;1.90;;;;;;;21.59;49.12;100856.23;133887;1299;22458;-78
2023/09/15 12:19:07;;;;;;;4.30;1.90;;;;;;;21.47;49.53;100850.73;133929;1299;22221;-77
2023/09/15 12:22:08;;;;;;;4.40;1.90;;;;;;;21.39;49.47;100845.33;133922;1301;22714;-77
2023/09/15 12:25:10;;;;;;;3.00;2.50;;;;;;;21.38;49.57;100846.52;133909;1299;22671;-77
2023/09/15 12:28:11;;;;;;;3.10;2.00;;;;;;;21.33;49.57;100842.13;133905;1299;22167;-78
2023/09/15 12:31:20;;;;;;;5.00;2.10;;;;;;;21.37;50.26;100838.67;133900;1299;22441;-77
2023/09/15 12:34:24;;;;;;;3.30;2.20;;;;;;;21.68;50.42;100834.85;133912;1299;22316;-77
2023/09/15 12:37:30;;;;;;;6.50;1.90;;;;;;;22.02;49.94;100833.11;133910;1299;23239;-78
2023/09/15 12:40:32;;;;;;;3.00;2.10;;;;;;;22.37;49.89;100833.45;133974;1301;22422;-77
2023/09/15 12:43:32;;;;;;;2.80;2.10;;;;;;;22.66;48.99;100839.63;133903;1299;23062;-78
2023/09/15 12:46:33;;;;;;;4.70;2.10;;;;;;;22.77;48.37;100842.13;133913;1301;22399;-78
2023/09/15 12:49:34;;;;;;;4.10;2.30;;;;;;;22.66;48.16;100836.64;133929;1300;22466;-77
2023/09/15 12:52:34;;;;;;;3.30;2.00;;;;;;;22.41;48.26;100835.63;133918;1299;22360;-77
2023/09/15 12:55:35;;;;;;;5.40;2.20;;;;;;;22.31;48.34;100829.56;133983;1299;23232;-77
2023/09/15 12:58:35;;;;;;;4.80;2.40;;;;;;;22.42;48.78;100824.89;133953;1299;22360;-77
2023/09/15 13:01:36;;;;;;;4.10;2.40;;;;;;;22.54;48.68;100820.53;133883;1299;22875;-77
2023/09/15 13:04:39;;;;;;;2.70;2.30;;;;;;;22.55;47.86;100821.22;133851;1299;22340;-77
2023/09/15 13:07:43;;;;;;;3.70;2.30;;;;;;;22.55;47.79;100817.55;133912;1299;23203;-79
2023/09/15 13:10:43;;;;;;;3.90;2.10;;;;;;;22.59;48.19;100813.14;133939;1299;22417;-78
2023/09/15 13:13:44;;;;;;;4.60;3.30;;;;;;;22.79;48.39;100808.44;133898;1295;22243;-78
2023/09/15 13:16:45;;;;;;;5.10;2.20;;;;;;;22.95;47.98;100801.98;133906;1295;22458;-77
2023/09/15 13:19:45;;;;;;;4.60;2.10;;;;;;;23.09;47.82;100797.26;133917;1301;22492;-77
2023/09/15 13:22:46;;;;;;;5.50;2.40;;;;;;;23.18;46.83;100795.79;133950;1300;22480;-77
2023/09/15 13:25:46;;;;;;;4.90;2.30;;;;;;;22.94;46.38;100797.90;133959;1299;22511;-78
2023/09/15 13:28:47;;;;;;;3.10;2.40;;;;;;;22.66;46.37;100795.19;133927;1299;22357;-77
2023/09/15 13:31:48;;;;;;;5.60;2.50;;;;;;;22.52;46.23;100795.16;133897;1299;23293;-78
2023/09/15 13:34:49;;;;;;;3.20;2.00;;;;;;;22.47;46.05;100787.45;133929;1299;22256;-78
2023/09/15 13:37:53;;;;;;;3.80;2.00;;;;;;;22.48;46.48;100790.99;133908;1299;22353;-77
2023/09/15 13:40:56;;;;;;;3.30;2.10;;;;;;;22.38;45.92;100789.34;133926;1289;22398;-77
2023/09/15 13:44:04;;;;;;;2.00;1.70;;;;;;;22.18;45.81;100785.09;133927;1299;22432;-77
2023/09/15 13:47:07;;;;;;;2.50;2.10;;;;;;;22.08;46.24;100786.36;133961;1301;22432;-77
2023/09/15 13:50:11;;;;;;;3.90;2.00;;;;;;;22.11;46.43;100785.61;133968;1301;22381;-78
2023/09/15 13:53:11;;;;;;;2.80;2.20;;;;;;;22.19;46.49;100772.98;133925;1302;22573;-77
2023/09/15 13:56:12;;;;;;;3.30;2.30;;;;;;;22.27;46.22;100770.80;133966;1295;22229;-78
2023/09/15 13:59:13;;;;;;;3.40;2.40;;;;;;;22.33;45.70;100765.25;133941;1299;23105;-77
2023/09/15 14:02:14;;;;;;;4.40;2.20;;;;;;;22.32;45.52;100761.05;133939;1299;23130;-78